Time;durP1;ratioP1;P1;durP2;ratioP2;P2;SDS_P1;SDS_P2;PMS_P1;PMS_P2;Temp;Humidity;BMP_temperature;BMP_pressure;BME280_temperature;BME280_humidity;BME280_pressure;Samples;Min_cycle;Max_cycle;Signal;HPM_P1;HPM_P2
2022/01/14 00:02:02;;;;;;;99.80;16.35;;;;;;;;;;5125829;27;20781;-60
2022/01/14 00:04:28;;;;;;;81.47;17.88;;;;;;;;;;5129203;27;20042;-61
2022/01/14 00:06:54;;;;;;;74.20;17.50;;;;;;;;;;5128211;27;20058;-60
2022/01/14 00:09:21;;;;;;;82.97;17.73;;;;;;;;;;5128742;27;20103;-62
2022/01/14 00:11:50;;;;;;;75.60;17.27;;;;;;;;;;5116143;27;20031;-62
2022/01/14 00:16:43;;;;;;;118.53;20.38;;;;;;;;;;5126644;27;20117;-61
2022/01/14 00:19:10;;;;;;;80.05;17.70;;;;;;;;;;5125400;27;20031;-63
2022/01/14 00:21:38;;;;;;;103.68;20.35;;;;;;;;;;5129339;27;20347;-62
2022/01/14 00:24:08;;;;;;;117.85;20.02;;;;;;;;;;5123938;27;20046;-62
2022/01/14 00:32:02;;;;;;;82.13;20.02;;;;;;;;;;5128691;27;20043;-60
2022/01/14 00:34:28;;;;;;;78.70;19.88;;;;;;;;;;5115729;27;20476;-62
2022/01/14 00:36:54;;;;;;;79.30;20.02;;;;;;;;;;5129349;27;20478;-62
2022/01/14 00:39:20;;;;;;;76.13;20.27;;;;;;;;;;5128868;27;20035;-61
2022/01/14 00:41:47;;;;;;;73.03;20.58;;;;;;;;;;5124824;27;20499;-61
2022/01/14 00:44:14;;;;;;;88.90;20.85;;;;;;;;;;5129027;27;20045;-60
2022/01/14 00:46:44;;;;;;;88.28;21.90;;;;;;;;;;5122781;27;20485;-61
2022/01/14 00:49:11;;;;;;;56.22;19.48;;;;;;;;;;5121039;27;20043;-61
2022/01/14 00:51:37;;;;;;;66.47;20.30;;;;;;;;;;5123351;28;20066;-60
2022/01/14 00:54:04;;;;;;;75.38;20.08;;;;;;;;;;5125356;27;20115;-61
2022/01/14 00:56:34;;;;;;;70.85;21.90;;;;;;;;;;5126803;27;20039;-62
2022/01/14 00:59:16;;;;;;;63.58;20.08;;;;;;;;;;5125815;28;20047;-60
2022/01/14 01:01:43;;;;;;;61.10;19.87;;;;;;;;;;5127683;27;20455;-61
2022/01/14 01:04:11;;;;;;;66.03;21.67;;;;;;;;;;5123669;28;20043;-60
2022/01/14 01:06:37;;;;;;;55.20;20.60;;;;;;;;;;5123009;28;20397;-62
2022/01/14 01:09:07;;;;;;;69.97;21.48;;;;;;;;;;5123259;28;20035;-61
2022/01/14 01:11:37;;;;;;;74.03;21.60;;;;;;;;;;5121437;28;20047;-62
2022/01/14 01:14:10;;;;;;;65.82;22.05;;;;;;;;;;5128052;27;20047;-62
2022/01/14 01:16:36;;;;;;;71.75;23.38;;;;;;;;;;5127656;27;20069;-62
2022/01/14 01:19:02;;;;;;;74.88;23.10;;;;;;;;;;5114801;28;20519;-60
2022/01/14 01:21:28;;;;;;;69.22;22.05;;;;;;;;;;5127052;28;20492;-61
2022/01/14 01:23:54;;;;;;;65.43;22.45;;;;;;;;;;5128651;28;20039;-61
2022/01/14 01:26:31;;;;;;;73.97;23.15;;;;;;;;;;5128067;28;20039;-62
2022/01/14 01:31:57;;;;;;;76.30;24.20;;;;;;;;;;5133114;27;20125;-60
2022/01/14 01:34:16;;;;;;;80.93;25.13;;;;;;;;;;5128658;27;20082;-61
2022/01/14 01:36:43;;;;;;;70.18;22.73;;;;;;;;;;5131528;27;20039;-62
2022/01/14 01:39:12;;;;;;;76.22;23.27;;;;;;;;;;5132442;27;20034;-61
2022/01/14 01:41:39;;;;;;;51.30;20.23;;;;;;;;;;5131244;27;20436;-62
2022/01/14 01:44:07;;;;;;;60.08;21.08;;;;;;;;;;5131019;27;20138;-62
2022/01/14 01:46:34;;;;;;;58.33;19.67;;;;;;;;;;5116847;27;20039;-62
2022/01/14 01:49:00;;;;;;;62.05;20.15;;;;;;;;;;5132859;27;20039;-61
2022/01/14 01:51:26;;;;;;;52.30;19.10;;;;;;;;;;5133461;27;20112;-61
2022/01/14 01:53:52;;;;;;;57.22;19.63;;;;;;;;;;5130591;27;20492;-62
2022/01/14 01:56:18;;;;;;;56.25;20.17;;;;;;;;;;5131906;27;20043;-61
2022/01/14 01:58:45;;;;;;;68.85;20.63;;;;;;;;;;5127414;27;20031;-61
2022/01/14 02:01:11;;;;;;;61.00;21.23;;;;;;;;;;5129387;27;20073;-60
2022/01/14 02:03:38;;;;;;;72.20;20.75;;;;;;;;;;5129957;27;20039;-62
2022/01/14 02:06:04;;;;;;;64.20;20.35;;;;;;;;;;5132275;27;20035;-61
2022/01/14 02:08:31;;;;;;;60.83;20.75;;;;;;;;;;5130568;27;20066;-60
2022/01/14 02:10:58;;;;;;;75.20;21.02;;;;;;;;;;5131882;27;20534;-60
2022/01/14 02:13:25;;;;;;;53.60;19.73;;;;;;;;;;5125624;27;20722;-61
2022/01/14 02:16:15;;;;;;;68.88;19.83;;;;;;;;;;5118336;27;20051;-61
2022/01/14 02:24:06;;;;;;;60.80;17.75;;;;;;;;;;5130093;27;20043;-63
2022/01/14 02:26:32;;;;;;;52.83;17.05;;;;;;;;;;5129000;27;20038;-61
2022/01/14 02:28:58;;;;;;;48.63;17.63;;;;;;;;;;5131801;27;20035;-61
2022/01/14 02:31:24;;;;;;;46.17;16.67;;;;;;;;;;5127626;27;20038;-60
2022/01/14 02:33:50;;;;;;;51.60;17.15;;;;;;;;;;5126269;27;20039;-61
2022/01/14 02:36:17;;;;;;;47.85;15.75;;;;;;;;;;5124148;27;20039;-61
2022/01/14 02:38:44;;;;;;;57.58;18.20;;;;;;;;;;5126198;27;20050;-62
2022/01/14 02:41:10;;;;;;;52.58;16.80;;;;;;;;;;5126614;27;20050;-61
2022/01/14 02:43:36;;;;;;;55.67;17.13;;;;;;;;;;5129350;27;20082;-59
2022/01/14 02:46:05;;;;;;;60.03;18.52;;;;;;;;;;5126886;27;20046;-62
2022/01/14 02:48:31;;;;;;;49.40;18.02;;;;;;;;;;5121960;27;20143;-61
2022/01/14 02:51:08;;;;;;;56.25;18.42;;;;;;;;;;5123359;27;20119;-61
2022/01/14 02:56:04;;;;;;;57.38;19.40;;;;;;;;;;5126390;27;20453;-62
2022/01/14 02:58:31;;;;;;;54.50;19.70;;;;;;;;;;5127557;27;20040;-61
2022/01/14 03:01:06;;;;;;;59.40;18.30;;;;;;;;;;5123841;27;20036;-62
2022/01/14 03:03:32;;;;;;;60.72;18.92;;;;;;;;;;5128356;27;20035;-62
2022/01/14 03:06:00;;;;;;;66.90;19.33;;;;;;;;;;5131791;27;20050;-63
2022/01/14 03:08:26;;;;;;;49.58;18.08;;;;;;;;;;5128305;27;20389;-63
2022/01/14 03:10:58;;;;;;;55.38;18.42;;;;;;;;;;5128822;27;20035;-62
2022/01/14 03:13:24;;;;;;;55.53;19.25;;;;;;;;;;5130086;27;20042;-60
2022/01/14 03:15:50;;;;;;;62.55;19.73;;;;;;;;;;5131116;27;20035;-63
2022/01/14 03:18:22;;;;;;;65.95;19.98;;;;;;;;;;5112572;27;20067;-61
2022/01/14 03:20:52;;;;;;;54.65;19.52;;;;;;;;;;5129283;27;20054;-62
2022/01/14 03:23:19;;;;;;;70.85;20.35;;;;;;;;;;5130720;27;20490;-59
2022/01/14 03:25:49;;;;;;;73.57;20.00;;;;;;;;;;5129128;27;20047;-61
2022/01/14 03:28:15;;;;;;;52.80;18.33;;;;;;;;;;5130153;27;20491;-60
2022/01/14 03:30:42;;;;;;;49.13;18.92;;;;;;;;;;5129807;27;20119;-61
2022/01/14 03:33:09;;;;;;;75.70;19.73;;;;;;;;;;5129597;27;20175;-61
2022/01/14 03:35:35;;;;;;;67.93;19.95;;;;;;;;;;5129331;27;20086;-61
2022/01/14 03:38:01;;;;;;;73.03;20.80;;;;;;;;;;5131085;27;20035;-62
2022/01/14 03:40:27;;;;;;;68.32;21.17;;;;;;;;;;5128007;27;20066;-60
2022/01/14 03:42:53;;;;;;;62.60;20.20;;;;;;;;;;5127427;27;20050;-60
2022/01/14 03:45:19;;;;;;;54.83;18.60;;;;;;;;;;5129414;27;20042;-63
2022/01/14 03:47:45;;;;;;;64.75;19.45;;;;;;;;;;5130306;27;20035;-60
2022/01/14 03:50:12;;;;;;;62.45;19.48;;;;;;;;;;5129832;27;20480;-60
2022/01/14 03:52:38;;;;;;;52.25;18.88;;;;;;;;;;5128518;27;20042;-60
2022/01/14 03:55:04;;;;;;;66.13;20.17;;;;;;;;;;5125873;27;20043;-62
2022/01/14 03:57:30;;;;;;;62.97;19.27;;;;;;;;;;5129080;27;21002;-61
2022/01/14 03:59:56;;;;;;;56.92;18.70;;;;;;;;;;5129398;27;20035;-61
2022/01/14 04:02:22;;;;;;;57.45;18.58;;;;;;;;;;5128011;27;20038;-61
2022/01/14 04:04:48;;;;;;;57.83;18.67;;;;;;;;;;5128565;27;20067;-60
2022/01/14 04:07:14;;;;;;;59.92;18.23;;;;;;;;;;5130540;27;20035;-61
2022/01/14 04:09:41;;;;;;;53.50;17.77;;;;;;;;;;5127295;27;20111;-61
2022/01/14 04:12:09;;;;;;;53.33;17.98;;;;;;;;;;5129351;27;20426;-62
2022/01/14 04:17:03;;;;;;;58.55;18.45;;;;;;;;;;5129829;27;20043;-61
2022/01/14 04:19:29;;;;;;;54.72;17.42;;;;;;;;;;5130256;27;20527;-61
2022/01/14 04:21:55;;;;;;;56.15;17.67;;;;;;;;;;5128276;27;20374;-61
2022/01/14 04:24:21;;;;;;;52.33;17.55;;;;;;;;;;5117516;27;20109;-62
2022/01/14 04:26:47;;;;;;;42.35;18.48;;;;;;;;;;5125591;27;20035;-61
2022/01/14 04:29:14;;;;;;;50.05;17.25;;;;;;;;;;5124215;27;20041;-60
2022/01/14 04:31:40;;;;;;;45.40;16.77;;;;;;;;;;5123899;27;20050;-61
2022/01/14 04:34:06;;;;;;;40.83;17.13;;;;;;;;;;5127016;27;20023;-62
2022/01/14 04:36:33;;;;;;;50.10;17.75;;;;;;;;;;5126688;27;20054;-61
2022/01/14 04:38:59;;;;;;;42.95;16.58;;;;;;;;;;5125759;27;20036;-61
2022/01/14 04:41:25;;;;;;;45.30;17.30;;;;;;;;;;5119112;27;20043;-62
2022/01/14 04:43:51;;;;;;;55.95;17.90;;;;;;;;;;5123742;27;20516;-61
2022/01/14 04:46:49;;;;;;;38.83;16.63;;;;;;;;;;5124022;27;20457;-61
2022/01/14 04:49:15;;;;;;;49.05;17.83;;;;;;;;;;5127140;27;20058;-63
2022/01/14 04:51:41;;;;;;;45.92;18.05;;;;;;;;;;5124964;27;20039;-61
2022/01/14 04:54:07;;;;;;;48.42;17.55;;;;;;;;;;5125786;28;20039;-61
2022/01/14 04:56:33;;;;;;;51.25;19.13;;;;;;;;;;5127764;28;20050;-61
2022/01/14 04:58:59;;;;;;;49.92;19.00;;;;;;;;;;5127638;28;20054;-62
2022/01/14 05:01:25;;;;;;;50.30;18.35;;;;;;;;;;5126638;28;20031;-61
2022/01/14 05:03:51;;;;;;;53.53;18.77;;;;;;;;;;5132653;27;20031;-62
2022/01/14 05:06:17;;;;;;;48.55;18.48;;;;;;;;;;5133075;27;20118;-61
2022/01/14 05:08:43;;;;;;;45.80;18.55;;;;;;;;;;5132678;27;20842;-61
2022/01/14 05:13:44;;;;;;;52.28;18.17;;;;;;;;;;5133143;27;20512;-61
2022/01/14 05:16:10;;;;;;;49.15;17.95;;;;;;;;;;5131600;27;20045;-63
2022/01/14 05:18:38;;;;;;;44.28;16.27;;;;;;;;;;5131882;27;20034;-60
2022/01/14 05:21:04;;;;;;;40.80;16.65;;;;;;;;;;5133983;27;20036;-60
2022/01/14 05:23:31;;;;;;;48.78;18.40;;;;;;;;;;5131837;27;20043;-61
2022/01/14 05:25:57;;;;;;;48.50;17.63;;;;;;;;;;5129415;27;20043;-62
2022/01/14 05:28:23;;;;;;;53.60;18.95;;;;;;;;;;5131583;27;20051;-61
2022/01/14 05:30:52;;;;;;;48.90;18.42;;;;;;;;;;5119364;27;20043;-60
2022/01/14 05:33:18;;;;;;;48.10;17.88;;;;;;;;;;5132151;27;20043;-61
2022/01/14 05:35:44;;;;;;;44.35;16.55;;;;;;;;;;5133480;27;20043;-60
2022/01/14 05:38:10;;;;;;;49.10;18.50;;;;;;;;;;5132041;27;20064;-63
2022/01/14 05:40:36;;;;;;;45.83;17.70;;;;;;;;;;5129275;27;20065;-61
2022/01/14 05:43:03;;;;;;;46.25;18.42;;;;;;;;;;5132776;27;20039;-63
2022/01/14 05:45:29;;;;;;;47.58;17.17;;;;;;;;;;5132962;27;20046;-61
2022/01/14 05:47:55;;;;;;;44.47;18.15;;;;;;;;;;5132444;27;20512;-62
2022/01/14 05:50:22;;;;;;;49.83;18.63;;;;;;;;;;5132158;27;20074;-63
2022/01/14 05:52:48;;;;;;;43.13;16.92;;;;;;;;;;5131714;27;20083;-60
2022/01/14 05:55:15;;;;;;;37.25;16.42;;;;;;;;;;5131698;27;20420;-60
2022/01/14 05:57:42;;;;;;;49.80;18.35;;;;;;;;;;5130861;27;20400;-60
2022/01/14 06:00:09;;;;;;;47.70;17.55;;;;;;;;;;5118746;27;20114;-62
2022/01/14 06:02:35;;;;;;;38.03;16.50;;;;;;;;;;5123727;27;20024;-60
2022/01/14 06:05:01;;;;;;;47.75;18.45;;;;;;;;;;5131995;27;20070;-60
2022/01/14 06:07:27;;;;;;;44.17;18.63;;;;;;;;;;5131614;27;20043;-61
2022/01/14 06:09:53;;;;;;;43.88;17.67;;;;;;;;;;5130480;27;20073;-60
2022/01/14 06:12:19;;;;;;;40.47;16.67;;;;;;;;;;5128214;27;20501;-63
2022/01/14 06:14:45;;;;;;;44.78;17.92;;;;;;;;;;5125718;27;20049;-61
2022/01/14 06:17:12;;;;;;;45.45;17.85;;;;;;;;;;5128445;27;20031;-59
2022/01/14 06:19:38;;;;;;;42.65;17.20;;;;;;;;;;5122365;27;20043;-63
2022/01/14 06:22:04;;;;;;;41.08;17.45;;;;;;;;;;5121740;27;20038;-62
2022/01/14 06:24:30;;;;;;;44.28;18.05;;;;;;;;;;5126298;27;20074;-61
2022/01/14 06:26:56;;;;;;;39.00;17.77;;;;;;;;;;5127422;27;20035;-61
2022/01/14 06:29:22;;;;;;;39.90;17.08;;;;;;;;;;5123536;27;20046;-62
2022/01/14 06:31:48;;;;;;;42.08;17.70;;;;;;;;;;5124574;27;20039;-60
2022/01/14 06:34:14;;;;;;;35.67;16.13;;;;;;;;;;5122132;27;20043;-61
2022/01/14 06:36:41;;;;;;;36.30;17.20;;;;;;;;;;5122224;27;20027;-63
2022/01/14 06:39:08;;;;;;;40.55;16.83;;;;;;;;;;5129524;27;20027;-60
2022/01/14 06:41:34;;;;;;;43.25;17.33;;;;;;;;;;5126476;27;20047;-61
2022/01/14 06:44:00;;;;;;;40.05;15.27;;;;;;;;;;5126006;27;20035;-62
2022/01/14 06:46:26;;;;;;;32.63;17.25;;;;;;;;;;5132158;27;20118;-61
2022/01/14 06:48:52;;;;;;;34.25;15.55;;;;;;;;;;5131136;27;20118;-61
2022/01/14 06:51:18;;;;;;;32.25;15.98;;;;;;;;;;5132309;27;20035;-60
2022/01/14 06:53:44;;;;;;;38.70;16.42;;;;;;;;;;5129962;27;20038;-63
2022/01/14 06:56:14;;;;;;;36.28;15.15;;;;;;;;;;5132140;27;20087;-60
2022/01/14 06:58:40;;;;;;;33.10;17.02;;;;;;;;;;5130311;27;20043;-60
2022/01/14 07:01:06;;;;;;;32.15;16.33;;;;;;;;;;5130912;27;20046;-62
2022/01/14 07:03:33;;;;;;;35.35;16.05;;;;;;;;;;5129941;27;20042;-60
2022/01/14 07:05:59;;;;;;;34.30;15.35;;;;;;;;;;5131851;27;20053;-61
2022/01/14 07:08:25;;;;;;;31.92;15.95;;;;;;;;;;5130921;27;20038;-61
2022/01/14 07:10:51;;;;;;;34.85;16.30;;;;;;;;;;5131257;27;20039;-60
2022/01/14 07:13:17;;;;;;;30.63;15.82;;;;;;;;;;5131477;27;20027;-61
2022/01/14 07:15:44;;;;;;;30.80;16.35;;;;;;;;;;5129115;27;20130;-61
2022/01/14 07:18:10;;;;;;;29.98;15.52;;;;;;;;;;5129429;27;20524;-60
2022/01/14 07:20:37;;;;;;;27.50;16.20;;;;;;;;;;5129791;27;20038;-60
2022/01/14 07:23:03;;;;;;;32.13;15.90;;;;;;;;;;5131384;27;20039;-60
2022/01/14 07:25:29;;;;;;;31.23;16.33;;;;;;;;;;5129847;27;20046;-60
2022/01/14 07:27:56;;;;;;;31.20;16.48;;;;;;;;;;5125723;27;20035;-60
2022/01/14 07:30:23;;;;;;;31.10;16.60;;;;;;;;;;5125606;27;20061;-60
2022/01/14 07:32:49;;;;;;;30.98;16.88;;;;;;;;;;5125243;27;20043;-61
2022/01/14 07:35:15;;;;;;;30.35;15.77;;;;;;;;;;5130812;27;20131;-61
2022/01/14 07:37:41;;;;;;;32.15;15.75;;;;;;;;;;5116575;27;20050;-60
2022/01/14 07:40:07;;;;;;;34.28;15.57;;;;;;;;;;5128050;27;20410;-59
2022/01/14 07:42:34;;;;;;;31.63;16.30;;;;;;;;;;5128419;27;20524;-60
2022/01/14 07:45:00;;;;;;;33.28;16.08;;;;;;;;;;5130294;27;20066;-61
2022/01/14 07:47:26;;;;;;;35.40;16.65;;;;;;;;;;5131229;27;20039;-61
2022/01/14 07:49:53;;;;;;;30.77;16.58;;;;;;;;;;5128154;27;20054;-59
2022/01/14 07:52:19;;;;;;;34.17;16.73;;;;;;;;;;5127957;27;20042;-60
2022/01/14 07:54:45;;;;;;;33.75;16.95;;;;;;;;;;5130944;27;20039;-59
2022/01/14 07:57:12;;;;;;;33.80;16.20;;;;;;;;;;5129017;27;20113;-61
2022/01/14 07:59:39;;;;;;;27.38;16.20;;;;;;;;;;5130950;27;20035;-61
2022/01/14 08:02:06;;;;;;;29.92;16.08;;;;;;;;;;5127464;27;20042;-60
2022/01/14 08:04:34;;;;;;;31.20;15.38;;;;;;;;;;5129471;27;20051;-60
2022/01/14 08:07:08;;;;;;;35.83;16.67;;;;;;;;;;5126898;27;20070;-60
2022/01/14 08:09:35;;;;;;;33.10;17.30;;;;;;;;;;5128817;27;20038;-60
2022/01/14 08:12:02;;;;;;;31.63;16.45;;;;;;;;;;5124336;27;20382;-61
2022/01/14 08:14:28;;;;;;;27.85;15.45;;;;;;;;;;5122339;27;20039;-62
2022/01/14 08:16:54;;;;;;;29.10;15.35;;;;;;;;;;5127715;27;20038;-61
2022/01/14 08:19:20;;;;;;;31.70;15.70;;;;;;;;;;5126317;27;20036;-60
2022/01/14 08:21:46;;;;;;;26.02;15.10;;;;;;;;;;5120738;27;20047;-61
2022/01/14 08:24:11;;;;;;;26.58;15.52;;;;;;;;;;5125021;27;20083;-61
2022/01/14 08:26:38;;;;;;;36.03;16.05;;;;;;;;;;5125600;27;20507;-60
2022/01/14 08:29:04;;;;;;;35.80;16.92;;;;;;;;;;5126744;27;20121;-61
2022/01/14 08:31:30;;;;;;;31.52;15.50;;;;;;;;;;5121845;27;20050;-62
2022/01/14 08:33:56;;;;;;;31.40;15.13;;;;;;;;;;5126300;27;20118;-61
2022/01/14 08:36:23;;;;;;;35.28;15.10;;;;;;;;;;5128050;27;20047;-61
2022/01/14 08:38:51;;;;;;;30.08;15.43;;;;;;;;;;5128692;27;20106;-62
2022/01/14 08:41:19;;;;;;;30.02;15.23;;;;;;;;;;5130341;27;20575;-63
2022/01/14 08:43:46;;;;;;;31.60;16.05;;;;;;;;;;5127644;27;20477;-61
2022/01/14 08:46:13;;;;;;;34.17;16.02;;;;;;;;;;5128679;27;20122;-61
2022/01/14 08:48:39;;;;;;;27.17;16.63;;;;;;;;;;5127892;27;20061;-61
2022/01/14 08:51:05;;;;;;;33.78;15.05;;;;;;;;;;5128090;27;20047;-62
2022/01/14 08:53:31;;;;;;;30.20;16.60;;;;;;;;;;5124305;28;20154;-61
2022/01/14 08:55:57;;;;;;;34.92;15.55;;;;;;;;;;5127892;28;20035;-60
2022/01/14 08:58:23;;;;;;;31.58;14.70;;;;;;;;;;5128214;28;20138;-61
2022/01/14 09:00:49;;;;;;;29.35;14.82;;;;;;;;;;5127830;28;20121;-60
2022/01/14 09:03:15;;;;;;;28.33;14.75;;;;;;;;;;5128840;27;20037;-60
2022/01/14 09:05:41;;;;;;;26.35;13.57;;;;;;;;;;5126734;28;20046;-60
2022/01/14 09:08:08;;;;;;;28.90;13.88;;;;;;;;;;5126497;28;20100;-60
2022/01/14 09:10:34;;;;;;;33.00;14.38;;;;;;;;;;5128592;28;20039;-61
2022/01/14 09:13:00;;;;;;;29.30;14.55;;;;;;;;;;5127214;28;20482;-61
2022/01/14 09:15:26;;;;;;;27.90;13.63;;;;;;;;;;5128319;28;20059;-63
2022/01/14 09:17:52;;;;;;;33.67;13.25;;;;;;;;;;5126275;28;20031;-63
2022/01/14 09:20:18;;;;;;;27.48;12.95;;;;;;;;;;5128497;28;20041;-62
2022/01/14 09:22:48;;;;;;;29.65;12.93;;;;;;;;;;5128138;28;20039;-63
2022/01/14 09:25:15;;;;;;;28.20;13.30;;;;;;;;;;5129029;27;20063;-62
2022/01/14 09:27:41;;;;;;;24.95;12.65;;;;;;;;;;5126746;28;20051;-62
2022/01/14 09:30:07;;;;;;;24.05;12.23;;;;;;;;;;5117432;28;20071;-61
2022/01/14 09:32:33;;;;;;;27.25;11.40;;;;;;;;;;5127538;28;20088;-62
2022/01/14 09:35:04;;;;;;;23.27;11.98;;;;;;;;;;5127859;28;20047;-60
2022/01/14 09:37:31;;;;;;;26.13;11.70;;;;;;;;;;5127575;27;20043;-61
2022/01/14 09:39:57;;;;;;;27.85;11.85;;;;;;;;;;5129585;28;20079;-61
2022/01/14 09:42:23;;;;;;;25.52;11.20;;;;;;;;;;5127587;28;20050;-61
2022/01/14 09:44:49;;;;;;;25.45;10.52;;;;;;;;;;5128729;28;20042;-60
2022/01/14 09:47:19;;;;;;;27.30;10.85;;;;;;;;;;5127746;28;20516;-59
2022/01/14 09:49:45;;;;;;;21.17;9.75;;;;;;;;;;5120297;27;20043;-60
2022/01/14 09:52:12;;;;;;;25.63;10.00;;;;;;;;;;5129060;27;20130;-62
2022/01/14 09:54:38;;;;;;;20.00;9.18;;;;;;;;;;5132151;27;20487;-60
2022/01/14 09:57:05;;;;;;;27.58;10.77;;;;;;;;;;5127869;27;20144;-59
2022/01/14 09:59:31;;;;;;;26.77;9.80;;;;;;;;;;5129642;27;20424;-61
2022/01/14 10:01:57;;;;;;;23.77;10.25;;;;;;;;;;5128768;27;20244;-60
2022/01/14 10:04:23;;;;;;;30.33;10.20;;;;;;;;;;5131576;27;20043;-62
2022/01/14 10:06:49;;;;;;;26.33;9.15;;;;;;;;;;5131535;27;20042;-61
2022/01/14 10:09:53;;;;;;;19.35;8.30;;;;;;;;;;5120299;27;20042;-59
2022/01/14 10:12:20;;;;;;;20.52;8.70;;;;;;;;;;5105791;27;20112;-61
2022/01/14 10:14:57;;;;;;;26.83;9.43;;;;;;;;;;5106782;27;20397;-62
2022/01/14 10:17:23;;;;;;;23.77;9.05;;;;;;;;;;5107605;27;20122;-62
2022/01/14 10:19:49;;;;;;;22.27;8.90;;;;;;;;;;5107969;28;20073;-60
2022/01/14 10:22:18;;;;;;;26.50;9.00;;;;;;;;;;5106860;27;20071;-63
2022/01/14 10:24:53;;;;;;;18.88;7.90;;;;;;;;;;5102065;27;20158;-60
2022/01/14 10:27:30;;;;;;;22.88;7.88;;;;;;;;;;5111412;27;20378;-60
2022/01/14 10:29:58;;;;;;;15.57;8.02;;;;;;;;;;5110078;27;20051;-61
2022/01/14 10:32:31;;;;;;;19.75;7.72;;;;;;;;;;5109712;28;20035;-61
2022/01/14 10:35:03;;;;;;;20.52;7.97;;;;;;;;;;5109298;27;20537;-62
2022/01/14 10:37:33;;;;;;;18.23;7.72;;;;;;;;;;5109872;28;20038;-59
2022/01/14 10:39:59;;;;;;;21.48;7.30;;;;;;;;;;5108473;27;20071;-60
2022/01/14 10:42:29;;;;;;;22.45;7.75;;;;;;;;;;5110408;28;20082;-63
2022/01/14 10:44:56;;;;;;;15.48;7.10;;;;;;;;;;5093379;27;20047;-61
2022/01/14 10:47:24;;;;;;;15.00;6.18;;;;;;;;;;5109121;27;20086;-59
2022/01/14 10:49:51;;;;;;;21.30;6.90;;;;;;;;;;5130516;27;20039;-60
2022/01/14 10:52:21;;;;;;;19.48;6.82;;;;;;;;;;5131743;27;20165;-61
2022/01/14 10:54:52;;;;;;;11.15;5.75;;;;;;;;;;5131911;27;20104;-61
2022/01/14 10:57:22;;;;;;;13.95;6.05;;;;;;;;;;5128758;27;20080;-60
2022/01/14 10:59:50;;;;;;;16.75;6.75;;;;;;;;;;5131279;27;20193;-61
2022/01/14 11:02:35;;;;;;;21.40;7.15;;;;;;;;;;5131176;27;20150;-60
2022/01/14 11:05:01;;;;;;;14.00;5.72;;;;;;;;;;5119716;27;20042;-60
2022/01/14 11:07:27;;;;;;;14.13;5.18;;;;;;;;;;5130435;27;20104;-59
2022/01/14 11:09:53;;;;;;;22.52;5.00;;;;;;;;;;5128234;27;20057;-59
2022/01/14 11:12:19;;;;;;;14.45;5.10;;;;;;;;;;5130590;27;20051;-60
2022/01/14 11:14:46;;;;;;;10.60;4.03;;;;;;;;;;5130232;27;20043;-60
2022/01/14 11:17:12;;;;;;;14.32;4.25;;;;;;;;;;5129519;27;20039;-60
2022/01/14 11:19:38;;;;;;;15.43;3.97;;;;;;;;;;5127982;27;20089;-60
2022/01/14 11:24:49;;;;;;;13.27;4.40;;;;;;;;;;5129084;27;20126;-60
2022/01/14 11:27:17;;;;;;;12.57;4.75;;;;;;;;;;5129461;27;20068;-60
2022/01/14 11:29:45;;;;;;;13.45;3.78;;;;;;;;;;5127951;27;20038;-61
2022/01/14 11:32:11;;;;;;;13.35;4.28;;;;;;;;;;5130035;27;20489;-59
2022/01/14 11:34:37;;;;;;;8.68;4.05;;;;;;;;;;5126220;27;20537;-61
2022/01/14 11:37:04;;;;;;;13.15;4.15;;;;;;;;;;5123737;27;20553;-60
2022/01/14 11:39:32;;;;;;;12.07;4.60;;;;;;;;;;5123906;27;20031;-59
2022/01/14 11:41:57;;;;;;;15.00;4.40;;;;;;;;;;5117810;27;20049;-61
2022/01/14 11:44:42;;;;;;;13.68;4.38;;;;;;;;;;5125779;27;20424;-60
2022/01/14 11:47:09;;;;;;;11.93;4.07;;;;;;;;;;5125093;27;20040;-61
2022/01/14 11:49:38;;;;;;;13.73;4.13;;;;;;;;;;5127939;27;20114;-61
2022/01/14 11:52:08;;;;;;;13.57;3.83;;;;;;;;;;5125563;27;20035;-60
2022/01/14 11:54:38;;;;;;;9.85;4.28;;;;;;;;;;5119807;27;20080;-61
2022/01/14 11:57:04;;;;;;;12.88;4.47;;;;;;;;;;5124187;27;20039;-59
2022/01/14 11:59:30;;;;;;;13.95;3.78;;;;;;;;;;5129516;27;20100;-61
2022/01/14 12:01:57;;;;;;;13.45;3.65;;;;;;;;;;5124718;27;20081;-61
2022/01/14 12:04:24;;;;;;;13.40;3.10;;;;;;;;;;5125545;27;20042;-61
2022/01/14 12:06:50;;;;;;;11.93;4.00;;;;;;;;;;5126823;27;20065;-61
2022/01/14 12:09:16;;;;;;;13.93;3.25;;;;;;;;;;5129659;27;20031;-61
2022/01/14 12:11:42;;;;;;;10.00;3.10;;;;;;;;;;5126810;27;20062;-61
2022/01/14 12:14:11;;;;;;;9.05;2.75;;;;;;;;;;5128883;27;20076;-60
2022/01/14 12:16:45;;;;;;;10.40;3.47;;;;;;;;;;5123048;27;20397;-60
2022/01/14 12:19:13;;;;;;;12.65;2.97;;;;;;;;;;5125218;27;20039;-60
2022/01/14 12:21:39;;;;;;;9.98;3.45;;;;;;;;;;5122653;27;20110;-61
2022/01/14 12:24:17;;;;;;;10.35;3.50;;;;;;;;;;5126693;27;20059;-60
2022/01/14 12:26:53;;;;;;;7.82;2.95;;;;;;;;;;5127947;27;20069;-60
2022/01/14 12:29:20;;;;;;;8.85;3.00;;;;;;;;;;5130733;27;20039;-61
2022/01/14 12:32:04;;;;;;;9.10;2.88;;;;;;;;;;5129410;27;20047;-60
2022/01/14 12:34:32;;;;;;;11.27;3.35;;;;;;;;;;5126761;27;20614;-61
2022/01/14 12:36:58;;;;;;;9.70;3.60;;;;;;;;;;5127822;27;20527;-62
2022/01/14 12:39:24;;;;;;;16.35;3.85;;;;;;;;;;5129476;27;20116;-61
2022/01/14 12:41:53;;;;;;;12.88;3.42;;;;;;;;;;5128701;27;20043;-61
2022/01/14 12:44:21;;;;;;;10.88;2.85;;;;;;;;;;5128878;27;20100;-60
2022/01/14 12:46:54;;;;;;;11.13;2.35;;;;;;;;;;5116000;27;20131;-61
2022/01/14 12:49:20;;;;;;;11.93;2.60;;;;;;;;;;5128519;27;20042;-61
2022/01/14 12:51:46;;;;;;;13.00;2.60;;;;;;;;;;5128201;27;20378;-62
2022/01/14 12:54:12;;;;;;;11.25;2.80;;;;;;;;;;5126806;28;20039;-60
2022/01/14 12:56:39;;;;;;;15.43;3.35;;;;;;;;;;5124494;28;20065;-61
2022/01/14 12:59:07;;;;;;;10.43;3.33;;;;;;;;;;5128058;28;20039;-61
2022/01/14 13:01:33;;;;;;;13.73;3.22;;;;;;;;;;5127433;27;20059;-61
2022/01/14 13:04:03;;;;;;;11.30;2.92;;;;;;;;;;5128512;28;20038;-60
2022/01/14 13:06:40;;;;;;;17.65;3.20;;;;;;;;;;5127168;28;20039;-60
2022/01/14 13:09:07;;;;;;;12.57;2.88;;;;;;;;;;5127100;28;20050;-61
2022/01/14 13:11:45;;;;;;;13.30;3.97;;;;;;;;;;5128275;28;20039;-61
2022/01/14 13:14:16;;;;;;;13.48;3.25;;;;;;;;;;5129887;28;20120;-61
2022/01/14 13:16:46;;;;;;;9.45;3.00;;;;;;;;;;5127707;27;20047;-61
2022/01/14 13:19:25;;;;;;;16.42;3.50;;;;;;;;;;5128184;28;20027;-60
2022/01/14 13:21:51;;;;;;;9.75;3.15;;;;;;;;;;5128478;28;20405;-61
2022/01/14 13:24:25;;;;;;;15.52;3.78;;;;;;;;;;5129469;27;20303;-61
2022/01/14 13:27:01;;;;;;;13.35;3.35;;;;;;;;;;5129460;27;20405;-60
2022/01/14 13:29:27;;;;;;;11.02;2.60;;;;;;;;;;5132163;27;20091;-61
2022/01/14 13:31:53;;;;;;;13.93;3.00;;;;;;;;;;5132823;27;20039;-62
2022/01/14 13:34:20;;;;;;;22.63;3.55;;;;;;;;;;5132485;27;20047;-60
2022/01/14 13:36:47;;;;;;;14.10;3.40;;;;;;;;;;5129418;27;20046;-61
2022/01/14 13:39:13;;;;;;;8.35;3.03;;;;;;;;;;5130288;27;20442;-60
2022/01/14 13:41:42;;;;;;;15.10;3.28;;;;;;;;;;5132915;27;20127;-60
2022/01/14 13:44:16;;;;;;;12.05;2.97;;;;;;;;;;5131917;27;20224;-61
2022/01/14 13:46:50;;;;;;;12.18;4.18;;;;;;;;;;5132603;27;20065;-60
2022/01/14 13:49:23;;;;;;;12.38;3.40;;;;;;;;;;5130914;27;20054;-60
2022/01/14 13:52:09;;;;;;;7.97;3.35;;;;;;;;;;5131495;27;20035;-59
2022/01/14 13:54:35;;;;;;;10.65;2.78;;;;;;;;;;5130507;27;20039;-60
2022/01/14 13:57:08;;;;;;;8.13;2.70;;;;;;;;;;5130602;27;20153;-60
2022/01/14 13:59:34;;;;;;;10.02;3.33;;;;;;;;;;5130919;27;20023;-61
2022/01/14 14:02:01;;;;;;;16.92;3.35;;;;;;;;;;5120656;27;20035;-61
2022/01/14 14:04:30;;;;;;;6.75;2.38;;;;;;;;;;5131281;27;20046;-60
2022/01/14 14:07:06;;;;;;;12.98;3.10;;;;;;;;;;5130687;27;20035;-60
2022/01/14 14:10:07;;;;;;;7.38;3.05;;;;;;;;;;5131032;27;20547;-61
2022/01/14 14:17:39;;;;;;;11.60;2.83;;;;;;;;;;5116376;27;20043;-60
2022/01/14 14:20:06;;;;;;;12.90;2.83;;;;;;;;;;5132939;27;20461;-60
2022/01/14 14:22:37;;;;;;;9.05;3.00;;;;;;;;;;5129651;27;20035;-61
2022/01/14 14:25:32;;;;;;;14.98;3.00;;;;;;;;;;5132607;27;20054;-60
2022/01/14 14:27:54;;;;;;;11.07;3.47;;;;;;;;;;5128613;27;20074;-60
2022/01/14 14:30:20;;;;;;;14.48;3.10;;;;;;;;;;5132463;27;20504;-60
2022/01/14 14:32:46;;;;;;;11.32;3.30;;;;;;;;;;5128975;27;20054;-60
2022/01/14 14:35:17;;;;;;;7.85;2.97;;;;;;;;;;5127626;27;20493;-61
2022/01/14 14:37:49;;;;;;;10.40;2.63;;;;;;;;;;5131039;27;20035;-60
2022/01/14 14:40:18;;;;;;;11.55;3.22;;;;;;;;;;5133121;27;20068;-60
2022/01/14 14:42:45;;;;;;;12.18;2.78;;;;;;;;;;5131915;27;20043;-61
2022/01/14 14:45:11;;;;;;;11.90;3.20;;;;;;;;;;5115122;27;20043;-61
2022/01/14 14:47:37;;;;;;;8.90;2.63;;;;;;;;;;5131869;27;20031;-61
2022/01/14 14:50:04;;;;;;;12.07;3.78;;;;;;;;;;5132039;27;20083;-60
2022/01/14 14:52:30;;;;;;;11.38;3.25;;;;;;;;;;5132823;27;20039;-60
2022/01/14 14:54:56;;;;;;;8.27;2.97;;;;;;;;;;5133165;27;20103;-60
2022/01/14 14:57:23;;;;;;;11.15;3.40;;;;;;;;;;5131067;27;20035;-60